Time;durP1;ratioP1;P1;durP2;ratioP2;P2;SDS_P1;SDS_P2;PMS_P1;PMS_P2;Temp;Humidity;BMP_temperature;BMP_pressure;BME280_temperature;BME280_humidity;BME280_pressure;Samples;Min_cycle;Max_cycle;Signal;HPM_P1;HPM_P2
2023/04/05 00:00:32;;;;;;;24.20;10.10;;;;;;;;;;5050188;28;20572;-60
2023/04/05 00:03:01;;;;;;;25.40;10.43;;;;;;;;;;5050937;28;20291;-60
2023/04/05 00:05:33;;;;;;;20.40;9.23;;;;;;;;;;5050778;28;20283;-60
2023/04/05 00:07:59;;;;;;;22.67;9.47;;;;;;;;;;5050372;28;20759;-60
2023/04/05 00:10:26;;;;;;;18.00;9.47;;;;;;;;;;5049823;28;20751;-60
2023/04/05 00:12:52;;;;;;;19.27;8.80;;;;;;;;;;5049236;28;20294;-60
2023/04/05 00:15:18;;;;;;;23.73;9.87;;;;;;;;;;5050397;28;20668;-60
2023/04/05 00:17:44;;;;;;;26.20;10.80;;;;;;;;;;5050419;28;20792;-60
2023/04/05 00:20:10;;;;;;;29.60;10.83;;;;;;;;;;5050008;28;20310;-60
2023/04/05 00:22:37;;;;;;;29.90;11.57;;;;;;;;;;5050291;28;20425;-60
2023/04/05 00:25:06;;;;;;;23.13;9.73;;;;;;;;;;5050410;28;20326;-60
2023/04/05 00:27:32;;;;;;;24.77;10.30;;;;;;;;;;5050387;28;20323;-61
2023/04/05 00:29:58;;;;;;;21.17;9.97;;;;;;;;;;5049938;28;20311;-60
2023/04/05 00:32:24;;;;;;;24.20;10.50;;;;;;;;;;5049632;28;20793;-60
2023/04/05 00:34:50;;;;;;;29.00;11.10;;;;;;;;;;5049316;28;20049;-60
2023/04/05 00:37:16;;;;;;;25.40;11.40;;;;;;;;;;5049617;28;20044;-60
2023/04/05 00:39:42;;;;;;;20.27;10.67;;;;;;;;;;5049591;28;20280;-60
2023/04/05 00:42:08;;;;;;;27.47;11.63;;;;;;;;;;5049361;28;20349;-60
2023/04/05 00:44:35;;;;;;;23.93;10.80;;;;;;;;;;5049709;28;20041;-60
2023/04/05 00:47:01;;;;;;;28.10;10.37;;;;;;;;;;5049346;28;20342;-60
2023/04/05 00:49:28;;;;;;;29.80;10.93;;;;;;;;;;5049775;28;20283;-60
2023/04/05 00:51:54;;;;;;;20.30;9.80;;;;;;;;;;5049231;28;20375;-60
2023/04/05 00:54:20;;;;;;;27.60;10.53;;;;;;;;;;5049169;28;20418;-60
2023/04/05 00:56:47;;;;;;;24.50;9.83;;;;;;;;;;5049408;28;20040;-60
2023/04/05 00:59:13;;;;;;;22.43;11.53;;;;;;;;;;5049210;28;20646;-60
2023/04/05 01:01:40;;;;;;;22.60;9.37;;;;;;;;;;5049321;28;20303;-60
2023/04/05 01:04:06;;;;;;;24.37;9.87;;;;;;;;;;5049421;28;20344;-60
2023/04/05 01:06:37;;;;;;;23.23;9.93;;;;;;;;;;5047876;28;20286;-60
2023/04/05 01:09:11;;;;;;;19.97;9.67;;;;;;;;;;5049257;28;20303;-60
2023/04/05 01:11:38;;;;;;;21.73;9.83;;;;;;;;;;5048910;28;20295;-60
2023/04/05 01:14:04;;;;;;;19.70;8.50;;;;;;;;;;5049005;28;20334;-60
2023/04/05 01:16:30;;;;;;;18.13;9.63;;;;;;;;;;5049520;28;20793;-60
2023/04/05 01:18:57;;;;;;;22.00;9.00;;;;;;;;;;5048227;28;20052;-60
2023/04/05 01:21:23;;;;;;;27.73;10.80;;;;;;;;;;5049336;28;20314;-60
2023/04/05 01:23:57;;;;;;;25.90;10.60;;;;;;;;;;5048802;28;20290;-60
2023/04/05 01:26:46;;;;;;;24.50;9.93;;;;;;;;;;5049187;28;20288;-60
2023/04/05 01:29:31;;;;;;;24.10;9.60;;;;;;;;;;5048656;28;20650;-60
2023/04/05 01:32:11;;;;;;;27.53;10.63;;;;;;;;;;5048394;28;20352;-61
2023/04/05 01:35:04;;;;;;;25.67;10.43;;;;;;;;;;5048408;28;20418;-60
2023/04/05 01:37:31;;;;;;;22.33;9.90;;;;;;;;;;5049107;28;20292;-60
2023/04/05 01:39:58;;;;;;;21.17;9.07;;;;;;;;;;5048288;28;20295;-60
2023/04/05 01:42:25;;;;;;;16.83;8.73;;;;;;;;;;5048733;28;20294;-60
2023/04/05 01:44:52;;;;;;;17.03;8.90;;;;;;;;;;5048535;28;21244;-60
2023/04/05 01:47:19;;;;;;;19.63;8.33;;;;;;;;;;5048715;28;20294;-60
2023/04/05 01:49:45;;;;;;;21.67;9.17;;;;;;;;;;5048714;28;20294;-60
2023/04/05 01:52:11;;;;;;;23.10;8.60;;;;;;;;;;5048653;28;20279;-60
2023/04/05 01:54:37;;;;;;;20.57;9.77;;;;;;;;;;5047487;28;20338;-61
2023/04/05 01:57:03;;;;;;;23.70;9.90;;;;;;;;;;5048208;28;20045;-60
2023/04/05 01:59:29;;;;;;;21.27;10.33;;;;;;;;;;5048896;28;20044;-60
2023/04/05 02:01:55;;;;;;;24.27;9.93;;;;;;;;;;5048642;28;20383;-60
2023/04/05 02:04:21;;;;;;;24.17;9.47;;;;;;;;;;5048308;28;20290;-60
2023/04/05 02:06:47;;;;;;;20.20;9.30;;;;;;;;;;5048588;28;20287;-60
2023/04/05 02:09:13;;;;;;;22.20;10.03;;;;;;;;;;5047148;28;20107;-60
2023/04/05 02:11:39;;;;;;;21.97;9.37;;;;;;;;;;5048187;28;20299;-60
2023/04/05 02:14:05;;;;;;;20.00;9.37;;;;;;;;;;5048482;28;20319;-60
2023/04/05 02:16:34;;;;;;;19.57;8.83;;;;;;;;;;5048414;28;20295;-60
2023/04/05 02:19:01;;;;;;;25.37;9.20;;;;;;;;;;5048304;28;20685;-61
2023/04/05 02:21:27;;;;;;;23.77;8.20;;;;;;;;;;5048587;28;20379;-60
2023/04/05 02:23:53;;;;;;;25.33;9.93;;;;;;;;;;5048045;28;20370;-60
2023/04/05 02:26:20;;;;;;;20.13;9.33;;;;;;;;;;5048339;28;20341;-60
2023/04/05 02:28:46;;;;;;;24.87;10.30;;;;;;;;;;5047630;28;20318;-61
2023/04/05 02:31:12;;;;;;;24.40;10.77;;;;;;;;;;5047667;28;20295;-60
2023/04/05 02:33:39;;;;;;;26.50;9.57;;;;;;;;;;5048515;28;20315;-60
2023/04/05 02:36:06;;;;;;;19.73;8.63;;;;;;;;;;5047623;28;20291;-61
2023/04/05 02:38:32;;;;;;;18.20;7.90;;;;;;;;;;5047879;28;20789;-60
2023/04/05 02:40:58;;;;;;;19.63;8.90;;;;;;;;;;5048435;28;20291;-60
2023/04/05 02:43:24;;;;;;;19.13;8.50;;;;;;;;;;5047945;28;20323;-60
2023/04/05 02:45:51;;;;;;;19.33;9.03;;;;;;;;;;5047812;28;20049;-60
2023/04/05 02:48:17;;;;;;;19.37;8.77;;;;;;;;;;5048119;28;20291;-60
2023/04/05 02:50:49;;;;;;;18.97;9.27;;;;;;;;;;5047844;28;20770;-60
2023/04/05 02:53:16;;;;;;;26.90;9.23;;;;;;;;;;5048029;28;20303;-61
2023/04/05 02:55:42;;;;;;;19.33;9.37;;;;;;;;;;5047988;28;20874;-60
2023/04/05 02:58:08;;;;;;;23.00;8.33;;;;;;;;;;5048089;28;21228;-60
2023/04/05 03:00:35;;;;;;;21.10;9.33;;;;;;;;;;5047668;28;20328;-60
2023/04/05 03:03:01;;;;;;;27.07;9.17;;;;;;;;;;5047850;28;20295;-60
2023/04/05 03:05:27;;;;;;;20.40;8.63;;;;;;;;;;5049575;28;20821;-61
2023/04/05 03:07:53;;;;;;;28.30;9.70;;;;;;;;;;5051738;28;20337;-60
2023/04/05 03:10:21;;;;;;;23.80;9.17;;;;;;;;;;5051751;28;20312;-61
2023/04/05 03:12:47;;;;;;;22.10;8.13;;;;;;;;;;5051271;28;20487;-60
2023/04/05 03:15:13;;;;;;;17.20;7.97;;;;;;;;;;5051235;28;20334;-60
2023/04/05 03:17:42;;;;;;;23.30;9.60;;;;;;;;;;5051019;28;20712;-60
2023/04/05 03:20:09;;;;;;;19.10;9.17;;;;;;;;;;5050846;28;20797;-60
2023/04/05 03:22:35;;;;;;;24.23;10.70;;;;;;;;;;5050802;28;20288;-60
2023/04/05 03:25:01;;;;;;;17.83;8.60;;;;;;;;;;5050557;28;20789;-60
2023/04/05 03:27:28;;;;;;;25.03;9.37;;;;;;;;;;5051112;28;20288;-60
2023/04/05 03:29:54;;;;;;;23.90;9.73;;;;;;;;;;5051142;28;20280;-60
2023/04/05 03:32:20;;;;;;;19.43;9.33;;;;;;;;;;5051205;28;20284;-60
2023/04/05 03:34:46;;;;;;;18.37;9.53;;;;;;;;;;5050794;28;20349;-61
2023/04/05 03:37:12;;;;;;;22.17;9.80;;;;;;;;;;5051154;28;20711;-60
2023/04/05 03:39:38;;;;;;;20.27;9.93;;;;;;;;;;5051204;28;20302;-60
2023/04/05 03:42:04;;;;;;;24.60;10.70;;;;;;;;;;5050900;28;20344;-60
2023/04/05 03:44:30;;;;;;;26.43;9.73;;;;;;;;;;5051094;28;20344;-60
2023/04/05 03:46:57;;;;;;;24.17;9.90;;;;;;;;;;5051335;28;20732;-60
2023/04/05 03:49:23;;;;;;;23.03;10.93;;;;;;;;;;5050716;28;20288;-60
2023/04/05 03:51:49;;;;;;;17.27;8.00;;;;;;;;;;5050190;28;20291;-60
2023/04/05 03:54:15;;;;;;;19.57;9.03;;;;;;;;;;5050675;28;20308;-60
2023/04/05 03:56:41;;;;;;;22.77;9.57;;;;;;;;;;5050939;28;20801;-60
2023/04/05 03:59:08;;;;;;;23.93;9.10;;;;;;;;;;5050227;28;20288;-60
2023/04/05 04:01:35;;;;;;;20.23;9.60;;;;;;;;;;5050829;28;20283;-60
2023/04/05 04:04:03;;;;;;;22.27;10.17;;;;;;;;;;5050723;28;20315;-60
2023/04/05 04:06:29;;;;;;;24.07;10.00;;;;;;;;;;5050471;28;20287;-60
2023/04/05 04:08:56;;;;;;;20.83;9.93;;;;;;;;;;5050978;28;20280;-60
2023/04/05 04:11:22;;;;;;;19.63;9.17;;;;;;;;;;5050263;28;20777;-60
2023/04/05 04:13:48;;;;;;;25.13;10.10;;;;;;;;;;5050475;28;20308;-60
2023/04/05 04:16:16;;;;;;;22.70;9.07;;;;;;;;;;5049471;28;20291;-60
2023/04/05 04:18:42;;;;;;;23.90;9.67;;;;;;;;;;5050200;28;20314;-60
2023/04/05 04:21:09;;;;;;;21.13;9.93;;;;;;;;;;5050440;28;20354;-60
2023/04/05 04:23:37;;;;;;;19.97;10.27;;;;;;;;;;5050389;28;20168;-60
2023/04/05 04:26:03;;;;;;;20.57;9.17;;;;;;;;;;5049777;28;20297;-60
2023/04/05 04:28:33;;;;;;;20.37;10.10;;;;;;;;;;5050075;28;20949;-60
2023/04/05 04:31:03;;;;;;;19.87;9.90;;;;;;;;;;5049876;28;20311;-60
2023/04/05 04:33:29;;;;;;;22.37;9.50;;;;;;;;;;5049857;28;20438;-60
2023/04/05 04:35:56;;;;;;;22.97;9.93;;;;;;;;;;5048974;28;20778;-60
2023/04/05 04:38:24;;;;;;;27.53;10.30;;;;;;;;;;5049639;28;20375;-60
2023/04/05 04:40:52;;;;;;;17.83;9.37;;;;;;;;;;5049801;28;20291;-60
2023/04/05 04:43:25;;;;;;;19.50;9.27;;;;;;;;;;5049831;28;20294;-60
2023/04/05 04:45:53;;;;;;;25.45;9.85;;;;;;;;;;5049839;28;20283;-60
2023/04/05 04:48:20;;;;;;;21.97;10.27;;;;;;;;;;5049793;28;20419;-60
2023/04/05 04:50:48;;;;;;;21.07;9.33;;;;;;;;;;5049440;28;20345;-60
2023/04/05 04:53:17;;;;;;;19.83;10.17;;;;;;;;;;5048619;28;20304;-60
2023/04/05 04:55:43;;;;;;;22.60;10.00;;;;;;;;;;5049809;28;20287;-61
2023/04/05 04:58:11;;;;;;;31.30;10.37;;;;;;;;;;5049158;28;20276;-60
2023/04/05 05:00:42;;;;;;;21.93;9.80;;;;;;;;;;5049623;28;20414;-60
2023/04/05 05:03:10;;;;;;;26.60;9.73;;;;;;;;;;5049507;28;20709;-60
2023/04/05 05:05:41;;;;;;;22.77;11.53;;;;;;;;;;5047745;28;20283;-60
2023/04/05 05:08:07;;;;;;;30.03;10.20;;;;;;;;;;5049371;28;20326;-60
2023/04/05 05:10:33;;;;;;;24.80;11.33;;;;;;;;;;5049595;28;20276;-60
2023/04/05 05:12:59;;;;;;;29.47;11.80;;;;;;;;;;5049340;28;20291;-60
2023/04/05 05:15:26;;;;;;;22.73;12.20;;;;;;;;;;5048873;28;20295;-60
2023/04/05 05:17:54;;;;;;;22.87;10.63;;;;;;;;;;5048810;28;20323;-60
2023/04/05 05:20:20;;;;;;;25.60;10.77;;;;;;;;;;5048958;28;20302;-60
2023/04/05 05:22:46;;;;;;;22.37;11.97;;;;;;;;;;5049209;28;20318;-60
2023/04/05 05:25:12;;;;;;;23.37;10.63;;;;;;;;;;5049043;28;20315;-60
2023/04/05 05:27:38;;;;;;;27.57;12.03;;;;;;;;;;5048657;28;20319;-60
2023/04/05 05:30:04;;;;;;;28.70;11.13;;;;;;;;;;5048715;28;20429;-60
2023/04/05 05:32:30;;;;;;;30.57;11.77;;;;;;;;;;5049435;28;20310;-60
2023/04/05 05:34:56;;;;;;;28.97;12.33;;;;;;;;;;5048591;28;21489;-60
2023/04/05 05:37:32;;;;;;;23.77;11.67;;;;;;;;;;5048593;28;20290;-61
2023/04/05 05:39:59;;;;;;;25.10;11.00;;;;;;;;;;5048400;28;20292;-60
2023/04/05 05:42:26;;;;;;;36.80;12.33;;;;;;;;;;5048479;28;20337;-60
2023/04/05 05:44:52;;;;;;;28.03;11.93;;;;;;;;;;5048990;28;20322;-60
2023/04/05 05:47:18;;;;;;;27.30;12.37;;;;;;;;;;5048821;28;20280;-60
2023/04/05 05:49:44;;;;;;;29.17;12.43;;;;;;;;;;5046966;28;20374;-60
2023/04/05 05:52:10;;;;;;;22.50;11.17;;;;;;;;;;5040023;28;20284;-60
2023/04/05 05:54:36;;;;;;;29.57;12.77;;;;;;;;;;5039857;28;20686;-60
2023/04/05 05:57:02;;;;;;;26.90;11.43;;;;;;;;;;5036995;28;20041;-60
2023/04/05 05:59:28;;;;;;;26.73;12.37;;;;;;;;;;5037085;28;20296;-61
2023/04/05 06:01:54;;;;;;;25.47;12.23;;;;;;;;;;5038266;28;20294;-60
2023/04/05 06:04:21;;;;;;;29.53;12.53;;;;;;;;;;5038539;28;20295;-60
2023/04/05 06:06:47;;;;;;;25.10;13.10;;;;;;;;;;5037026;28;20930;-60
2023/04/05 06:09:16;;;;;;;26.63;11.30;;;;;;;;;;5037164;28;20314;-60
2023/04/05 06:11:42;;;;;;;32.00;12.70;;;;;;;;;;5037087;28;20339;-60
2023/04/05 06:14:08;;;;;;;31.67;13.57;;;;;;;;;;5052805;28;20315;-60
2023/04/05 06:16:34;;;;;;;30.97;13.73;;;;;;;;;;5037052;28;20284;-60
2023/04/05 06:19:00;;;;;;;26.23;13.00;;;;;;;;;;5027954;28;20299;-60
2023/04/05 06:21:27;;;;;;;27.50;12.57;;;;;;;;;;5027645;28;20631;-60
2023/04/05 06:23:53;;;;;;;30.87;13.63;;;;;;;;;;5028308;28;20299;-61
2023/04/05 06:26:21;;;;;;;29.73;13.83;;;;;;;;;;5031873;28;20280;-61
2023/04/05 06:28:48;;;;;;;30.53;13.83;;;;;;;;;;5037906;28;20294;-61
2023/04/05 06:31:15;;;;;;;30.37;15.20;;;;;;;;;;5036020;28;20319;-61
2023/04/05 06:33:41;;;;;;;32.73;15.27;;;;;;;;;;5036307;28;20967;-61
2023/04/05 06:36:07;;;;;;;40.93;16.70;;;;;;;;;;5036382;28;20635;-61
2023/04/05 06:38:34;;;;;;;36.07;15.23;;;;;;;;;;5038984;28;20279;-60
2023/04/05 06:41:00;;;;;;;40.23;15.00;;;;;;;;;;5046389;28;20797;-60
2023/04/05 06:43:26;;;;;;;43.27;19.37;;;;;;;;;;5048218;28;20288;-60
2023/04/05 06:45:55;;;;;;;43.97;18.97;;;;;;;;;;5048826;28;20295;-60
2023/04/05 06:48:21;;;;;;;39.10;19.40;;;;;;;;;;5049256;28;20284;-60
2023/04/05 06:50:47;;;;;;;39.20;20.10;;;;;;;;;;5048297;28;20713;-60
2023/04/05 06:53:17;;;;;;;44.17;20.57;;;;;;;;;;5050229;28;20303;-60
2023/04/05 06:55:48;;;;;;;52.47;21.13;;;;;;;;;;5051941;28;20287;-60
2023/04/05 06:58:15;;;;;;;41.60;22.23;;;;;;;;;;5051774;28;20287;-60
2023/04/05 07:00:41;;;;;;;42.23;23.10;;;;;;;;;;5066544;28;20797;-60
2023/04/05 07:03:07;;;;;;;44.73;23.37;;;;;;;;;;5051249;28;20359;-60
2023/04/05 07:05:33;;;;;;;44.47;23.40;;;;;;;;;;5051506;28;20037;-60
2023/04/05 07:07:59;;;;;;;49.43;24.70;;;;;;;;;;5051457;28;20303;-60
2023/04/05 07:10:25;;;;;;;46.47;25.57;;;;;;;;;;5051424;28;20344;-60
2023/04/05 07:12:51;;;;;;;41.60;22.43;;;;;;;;;;5051448;28;20128;-61
2023/04/05 07:15:17;;;;;;;48.33;25.53;;;;;;;;;;5051396;28;20832;-61
2023/04/05 07:17:43;;;;;;;43.27;23.77;;;;;;;;;;5051061;28;20354;-60
2023/04/05 07:20:09;;;;;;;42.13;24.30;;;;;;;;;;5051440;28;20283;-61
2023/04/05 07:22:36;;;;;;;39.70;23.80;;;;;;;;;;5045398;28;20286;-61
2023/04/05 07:25:02;;;;;;;43.10;24.90;;;;;;;;;;5038915;28;20852;-61
2023/04/05 07:27:29;;;;;;;37.77;22.90;;;;;;;;;;5040062;28;20280;-61
2023/04/05 07:29:55;;;;;;;39.17;22.80;;;;;;;;;;5038568;28;20308;-61
2023/04/05 07:32:21;;;;;;;38.60;22.43;;;;;;;;;;5041582;28;20284;-61
2023/04/05 07:34:48;;;;;;;42.70;22.90;;;;;;;;;;5040170;28;20373;-60
2023/04/05 07:37:14;;;;;;;36.97;21.00;;;;;;;;;;5039645;28;20291;-60
2023/04/05 07:39:40;;;;;;;31.60;20.27;;;;;;;;;;5039097;28;20292;-61
2023/04/05 07:42:06;;;;;;;30.10;17.97;;;;;;;;;;5030732;28;20295;-60
2023/04/05 07:44:32;;;;;;;25.43;15.27;;;;;;;;;;5030785;28;20386;-60
2023/04/05 07:46:58;;;;;;;18.50;12.30;;;;;;;;;;5037988;28;20289;-60
2023/04/05 07:49:25;;;;;;;21.60;13.47;;;;;;;;;;5050608;28;20045;-60
2023/04/05 07:51:53;;;;;;;21.13;12.03;;;;;;;;;;5049978;28;20283;-60
2023/04/05 07:54:19;;;;;;;21.13;10.97;;;;;;;;;;5050216;28;20341;-60
2023/04/05 07:56:45;;;;;;;18.07;11.50;;;;;;;;;;5050230;28;20276;-60
2023/04/05 07:59:12;;;;;;;19.10;13.23;;;;;;;;;;5049413;28;20041;-60
2023/04/05 08:01:38;;;;;;;19.17;12.13;;;;;;;;;;5050771;28;20055;-60
2023/04/05 08:04:04;;;;;;;20.03;10.93;;;;;;;;;;5050098;28;20076;-60
2023/04/05 08:06:31;;;;;;;19.50;11.73;;;;;;;;;;5050512;28;20367;-61
2023/04/05 08:08:57;;;;;;;21.70;12.83;;;;;;;;;;5049242;28;20045;-60
2023/04/05 08:11:23;;;;;;;16.23;10.77;;;;;;;;;;5050400;28;20051;-60
2023/04/05 08:13:49;;;;;;;17.10;11.10;;;;;;;;;;5049793;28;20483;-60
2023/04/05 08:16:15;;;;;;;21.57;12.27;;;;;;;;;;5049581;28;20071;-60
2023/04/05 08:18:41;;;;;;;15.73;10.20;;;;;;;;;;5050048;28;20507;-60
2023/04/05 08:21:07;;;;;;;19.27;10.03;;;;;;;;;;5050022;28;20052;-60
2023/04/05 08:23:33;;;;;;;12.73;8.80;;;;;;;;;;5049830;28;20049;-60
2023/04/05 08:25:59;;;;;;;12.37;8.03;;;;;;;;;;5050063;28;20526;-60
2023/04/05 08:28:25;;;;;;;12.23;7.73;;;;;;;;;;5049787;28;20057;-61
2023/04/05 08:30:55;;;;;;;13.50;8.17;;;;;;;;;;5049497;28;20136;-60
2023/04/05 08:33:21;;;;;;;13.50;5.97;;;;;;;;;;5049507;28;20580;-60
2023/04/05 08:35:47;;;;;;;9.90;6.57;;;;;;;;;;5049685;28;20846;-61
2023/04/05 08:38:13;;;;;;;11.70;6.77;;;;;;;;;;5033251;28;20041;-60
2023/04/05 08:40:43;;;;;;;11.20;5.50;;;;;;;;;;5030270;28;20419;-60
2023/04/05 08:43:21;;;;;;;11.30;6.30;;;;;;;;;;5043582;28;20053;-61
2023/04/05 08:45:49;;;;;;;9.73;4.63;;;;;;;;;;5049652;28;20049;-60
2023/04/05 08:48:16;;;;;;;10.30;5.03;;;;;;;;;;5047981;28;20404;-61
2023/04/05 08:50:42;;;;;;;11.53;5.33;;;;;;;;;;5049076;28;20052;-60
2023/04/05 08:53:09;;;;;;;7.33;4.57;;;;;;;;;;5048575;28;20177;-60
2023/04/05 08:55:38;;;;;;;7.57;4.77;;;;;;;;;;5044850;28;20109;-61
2023/04/05 08:58:10;;;;;;;8.07;4.60;;;;;;;;;;5038772;28;20407;-61
2023/04/05 09:00:36;;;;;;;13.27;5.37;;;;;;;;;;5038616;28;20092;-61
2023/04/05 09:03:03;;;;;;;9.07;4.70;;;;;;;;;;5027270;28;20041;-60
2023/04/05 09:05:30;;;;;;;9.03;4.30;;;;;;;;;;5026239;28;20049;-60
2023/04/05 09:07:57;;;;;;;5.17;3.90;;;;;;;;;;5031349;28;20041;-60
2023/04/05 09:10:24;;;;;;;7.73;3.73;;;;;;;;;;5046319;28;20048;-61
2023/04/05 09:12:51;;;;;;;7.93;4.60;;;;;;;;;;5047379;28;20048;-61
2023/04/05 09:15:20;;;;;;;10.13;4.23;;;;;;;;;;5047493;28;20041;-60
2023/04/05 09:17:46;;;;;;;9.73;4.27;;;;;;;;;;5047260;28;20037;-60
2023/04/05 09:20:12;;;;;;;5.60;3.30;;;;;;;;;;5048705;28;20083;-60
2023/04/05 09:22:44;;;;;;;5.97;3.27;;;;;;;;;;5049114;28;20176;-61
2023/04/05 09:25:10;;;;;;;7.23;3.90;;;;;;;;;;5044955;28;20051;-60
2023/04/05 09:27:54;;;;;;;8.57;4.07;;;;;;;;;;5037012;28;20044;-60
2023/04/05 09:30:23;;;;;;;7.30;3.60;;;;;;;;;;5039327;28;20115;-60
2023/04/05 09:32:53;;;;;;;7.17;3.20;;;;;;;;;;5036307;28;20499;-60
2023/04/05 09:35:21;;;;;;;7.60;3.40;;;;;;;;;;5037431;28;20048;-61
2023/04/05 09:37:55;;;;;;;6.17;3.63;;;;;;;;;;5038264;28;20046;-61
2023/04/05 09:40:21;;;;;;;5.00;2.73;;;;;;;;;;5038067;28;20041;-61
2023/04/05 09:42:47;;;;;;;8.07;3.47;;;;;;;;;;5035268;28;20094;-61
2023/04/05 09:45:14;;;;;;;7.87;3.20;;;;;;;;;;5038270;28;20067;-61
2023/04/05 09:47:40;;;;;;;9.53;3.70;;;;;;;;;;5037279;28;20088;-61
2023/04/05 09:50:15;;;;;;;5.47;3.03;;;;;;;;;;5039201;28;20053;-61
2023/04/05 09:52:42;;;;;;;6.60;3.07;;;;;;;;;;5037982;28;20045;-61
2023/04/05 09:55:08;;;;;;;8.83;3.37;;;;;;;;;;5037780;28;20115;-61
2023/04/05 09:57:36;;;;;;;6.93;3.63;;;;;;;;;;5041236;28;20049;-61
2023/04/05 10:00:04;;;;;;;6.03;3.13;;;;;;;;;;5037358;28;20037;-61
2023/04/05 10:02:37;;;;;;;12.27;3.90;;;;;;;;;;5035897;28;20056;-61
2023/04/05 10:05:06;;;;;;;6.22;3.28;;;;;;;;;;5036866;28;20045;-61
2023/04/05 10:07:33;;;;;;;5.67;3.37;;;;;;;;;;5038200;28;20045;-60
2023/04/05 10:09:59;;;;;;;5.33;3.63;;;;;;;;;;5035347;28;20471;-60
2023/04/05 10:12:27;;;;;;;5.53;3.50;;;;;;;;;;5037155;28;20427;-61
2023/04/05 10:14:54;;;;;;;5.73;3.40;;;;;;;;;;5037143;28;20084;-61
2023/04/05 10:17:29;;;;;;;6.57;3.73;;;;;;;;;;5040868;28;20650;-61
2023/04/05 10:20:04;;;;;;;7.70;3.83;;;;;;;;;;5040253;28;20052;-60
2023/04/05 10:22:40;;;;;;;5.53;3.53;;;;;;;;;;5040101;28;20047;-61
2023/04/05 10:25:13;;;;;;;13.60;4.27;;;;;;;;;;5040400;28;20052;-61
2023/04/05 10:27:41;;;;;;;6.70;3.53;;;;;;;;;;5041333;28;20047;-62
2023/04/05 10:30:08;;;;;;;6.47;3.57;;;;;;;;;;5042383;28;20053;-62
2023/04/05 10:32:43;;;;;;;8.33;3.80;;;;;;;;;;5041995;28;20462;-61
2023/04/05 10:35:15;;;;;;;6.27;3.93;;;;;;;;;;5041629;28;20102;-61
2023/04/05 10:38:04;;;;;;;7.37;3.80;;;;;;;;;;5040157;28;20049;-62
2023/04/05 10:40:32;;;;;;;9.23;4.10;;;;;;;;;;5041224;28;20120;-61
2023/04/05 10:42:59;;;;;;;6.27;3.60;;;;;;;;;;5040190;28;20056;-62
2023/04/05 10:45:26;;;;;;;6.43;3.60;;;;;;;;;;5040028;28;20049;-61
2023/04/05 10:48:01;;;;;;;5.50;3.50;;;;;;;;;;5041427;28;20142;-62
2023/04/05 10:50:28;;;;;;;7.80;3.90;;;;;;;;;;5041206;28;20076;-62
2023/04/05 10:52:55;;;;;;;8.13;4.60;;;;;;;;;;5039598;28;20041;-61
2023/04/05 10:55:22;;;;;;;9.50;4.20;;;;;;;;;;5040323;28;20132;-61
2023/04/05 10:57:49;;;;;;;7.10;3.70;;;;;;;;;;5041428;28;20080;-61
2023/04/05 11:00:16;;;;;;;5.83;3.40;;;;;;;;;;5041395;28;20049;-61
2023/04/05 11:02:43;;;;;;;5.93;3.53;;;;;;;;;;5040458;28;20049;-60
2023/04/05 11:05:28;;;;;;;6.13;3.43;;;;;;;;;;5041422;28;20045;-61
2023/04/05 11:07:59;;;;;;;5.73;3.60;;;;;;;;;;5041122;28;20060;-61
2023/04/05 11:10:26;;;;;;;6.53;3.60;;;;;;;;;;5040549;28;20048;-61
2023/04/05 11:12:52;;;;;;;7.80;4.10;;;;;;;;;;5038659;28;20048;-61
2023/04/05 11:15:27;;;;;;;6.27;3.50;;;;;;;;;;5040121;28;20067;-61
2023/04/05 11:18:13;;;;;;;5.80;3.63;;;;;;;;;;5040734;28;20041;-61
2023/04/05 11:20:41;;;;;;;6.47;3.83;;;;;;;;;;5039828;28;20050;-61
2023/04/05 11:23:07;;;;;;;6.50;4.00;;;;;;;;;;5039288;28;20049;-61
2023/04/05 11:25:39;;;;;;;7.63;4.27;;;;;;;;;;5040538;28;20045;-61
2023/04/05 11:28:05;;;;;;;8.10;4.63;;;;;;;;;;5035847;28;20057;-61
2023/04/05 11:30:57;;;;;;;11.00;4.27;;;;;;;;;;5039629;28;20057;-61
2023/04/05 11:33:42;;;;;;;8.30;4.17;;;;;;;;;;5040086;28;20052;-61
2023/04/05 11:36:09;;;;;;;5.27;3.87;;;;;;;;;;5040542;28;20419;-61
2023/04/05 11:38:35;;;;;;;5.67;3.93;;;;;;;;;;5040311;28;20845;-61
2023/04/05 11:41:06;;;;;;;7.63;3.53;;;;;;;;;;5038098;28;20416;-61
2023/04/05 11:43:37;;;;;;;6.03;3.87;;;;;;;;;;5039617;28;20419;-61
2023/04/05 11:46:04;;;;;;;6.07;3.60;;;;;;;;;;5040445;28;20045;-61
2023/04/05 11:48:30;;;;;;;6.53;3.80;;;;;;;;;;5039545;28;20050;-61
2023/04/05 11:50:57;;;;;;;6.43;4.13;;;;;;;;;;5041081;28;20136;-61
2023/04/05 11:53:23;;;;;;;9.93;4.27;;;;;;;;;;5038051;28;20137;-61
2023/04/05 11:55:50;;;;;;;6.50;3.53;;;;;;;;;;5041935;28;20536;-61
2023/04/05 11:58:21;;;;;;;7.17;3.87;;;;;;;;;;5044111;28;20160;-61
2023/04/05 12:00:56;;;;;;;6.87;3.63;;;;;;;;;;5049380;28;20044;-61
2023/04/05 12:03:22;;;;;;;6.07;3.30;;;;;;;;;;5039367;28;20053;-61
2023/04/05 12:05:48;;;;;;;6.30;3.60;;;;;;;;;;5048683;28;20052;-61
2023/04/05 12:08:14;;;;;;;8.03;3.20;;;;;;;;;;5050181;28;20044;-61
2023/04/05 12:10:40;;;;;;;6.67;3.37;;;;;;;;;;5044366;28;20419;-61
2023/04/05 12:13:06;;;;;;;6.17;3.70;;;;;;;;;;5030480;28;20526;-61
2023/04/05 12:15:35;;;;;;;8.40;3.83;;;;;;;;;;5030559;28;20042;-61
2023/04/05 12:18:02;;;;;;;6.17;3.80;;;;;;;;;;5029908;28;20518;-61
2023/04/05 12:20:28;;;;;;;6.57;3.40;;;;;;;;;;5033021;28;20045;-61
2023/04/05 12:22:55;;;;;;;6.47;3.77;;;;;;;;;;5049627;28;20562;-61
2023/04/05 12:25:22;;;;;;;6.43;4.13;;;;;;;;;;5042758;28;20083;-61
2023/04/05 12:27:48;;;;;;;6.77;3.87;;;;;;;;;;5037857;28;20061;-61
2023/04/05 12:30:19;;;;;;;8.47;4.10;;;;;;;;;;5044179;28;20516;-60
2023/04/05 12:32:51;;;;;;;6.70;4.20;;;;;;;;;;5036980;28;20037;-59
2023/04/05 12:35:19;;;;;;;8.00;3.90;;;;;;;;;;5037978;28;20045;-60
2023/04/05 12:37:45;;;;;;;7.17;3.83;;;;;;;;;;5039311;28;20044;-60
2023/04/05 12:40:12;;;;;;;6.10;3.67;;;;;;;;;;5030119;28;20045;-60
2023/04/05 12:42:39;;;;;;;5.27;3.53;;;;;;;;;;5039129;28;20221;-60
2023/04/05 12:45:14;;;;;;;6.80;3.63;;;;;;;;;;5039923;28;20037;-61
2023/04/05 12:47:47;;;;;;;8.13;3.83;;;;;;;;;;5034750;28;20057;-61
2023/04/05 12:50:15;;;;;;;5.57;3.73;;;;;;;;;;5036896;28;20041;-61
2023/04/05 12:53:01;;;;;;;8.87;4.10;;;;;;;;;;5041541;28;20517;-59
2023/04/05 12:55:30;;;;;;;6.60;3.67;;;;;;;;;;5040096;28;20051;-61
2023/04/05 12:57:58;;;;;;;4.43;3.50;;;;;;;;;;5034756;28;20491;-61
2023/04/05 13:00:25;;;;;;;4.87;3.40;;;;;;;;;;5032274;28;21159;-60
2023/04/05 13:02:52;;;;;;;6.30;3.83;;;;;;;;;;5036251;28;20077;-61
2023/04/05 13:05:28;;;;;;;5.73;3.80;;;;;;;;;;5035042;28;20095;-61
2023/04/05 13:07:54;;;;;;;5.20;3.90;;;;;;;;;;5042066;28;20477;-61
2023/04/05 13:10:21;;;;;;;7.80;3.87;;;;;;;;;;5042075;28;20045;-61
2023/04/05 13:12:48;;;;;;;6.27;3.87;;;;;;;;;;5037093;28;20037;-62
2023/04/05 13:15:14;;;;;;;4.93;3.37;;;;;;;;;;5035789;28;20048;-61
2023/04/05 13:17:41;;;;;;;4.57;3.43;;;;;;;;;;5036563;28;20045;-61
2023/04/05 13:20:08;;;;;;;7.00;3.67;;;;;;;;;;5037205;28;20519;-60
2023/04/05 13:22:35;;;;;;;6.40;4.03;;;;;;;;;;5038792;28;20045;-62
2023/04/05 13:25:01;;;;;;;6.13;4.30;;;;;;;;;;5041992;28;20056;-61
2023/04/05 13:27:30;;;;;;;7.97;4.03;;;;;;;;;;5038289;28;20044;-62
2023/04/05 13:29:56;;;;;;;5.90;3.63;;;;;;;;;;5037889;28;20534;-62
2023/04/05 13:32:22;;;;;;;7.33;3.77;;;;;;;;;;5037317;28;20124;-61
2023/04/05 13:34:48;;;;;;;5.13;3.63;;;;;;;;;;5039228;28;20055;-61
2023/04/05 13:37:15;;;;;;;5.83;3.63;;;;;;;;;;5048720;28;20419;-61
2023/04/05 13:39:41;;;;;;;5.43;3.93;;;;;;;;;;5048477;28;20499;-61
2023/04/05 13:42:07;;;;;;;7.63;4.47;;;;;;;;;;5048823;28;20051;-61
2023/04/05 13:44:33;;;;;;;6.40;4.20;;;;;;;;;;5043075;28;20044;-61
2023/04/05 13:46:59;;;;;;;5.47;3.97;;;;;;;;;;5036674;28;20038;-60
2023/04/05 13:49:25;;;;;;;6.63;4.20;;;;;;;;;;5027791;28;20111;-60
2023/04/05 13:51:52;;;;;;;6.50;3.63;;;;;;;;;;5028898;28;20041;-60
2023/04/05 13:54:18;;;;;;;6.83;3.87;;;;;;;;;;5028824;28;20569;-60
2023/04/05 13:56:44;;;;;;;5.33;3.90;;;;;;;;;;5028475;28;20041;-61
2023/04/05 13:59:15;;;;;;;5.30;3.80;;;;;;;;;;5028476;28;20041;-60
2023/04/05 14:01:43;;;;;;;5.87;3.80;;;;;;;;;;5028831;28;20053;-61
2023/04/05 14:04:09;;;;;;;5.57;3.63;;;;;;;;;;5028816;28;20053;-61
2023/04/05 14:06:35;;;;;;;5.33;3.70;;;;;;;;;;5028466;28;20045;-61
2023/04/05 14:09:01;;;;;;;6.03;3.40;;;;;;;;;;5032460;28;20558;-61
2023/04/05 14:11:27;;;;;;;6.73;4.17;;;;;;;;;;5037691;28;20115;-60
2023/04/05 14:13:54;;;;;;;7.33;4.07;;;;;;;;;;5045330;28;20045;-61
2023/04/05 14:16:20;;;;;;;5.20;3.90;;;;;;;;;;5041057;28;20048;-61
2023/04/05 14:18:46;;;;;;;7.07;3.63;;;;;;;;;;5031316;28;20064;-60
2023/04/05 14:21:12;;;;;;;6.60;3.70;;;;;;;;;;5028896;28;20037;-61
2023/04/05 14:23:38;;;;;;;7.00;4.13;;;;;;;;;;5028621;28;20111;-61
2023/04/05 14:26:04;;;;;;;6.67;4.10;;;;;;;;;;5028581;28;20042;-61
2023/04/05 14:28:30;;;;;;;6.63;3.97;;;;;;;;;;5028332;28;20057;-60
2023/04/05 14:30:58;;;;;;;6.33;3.93;;;;;;;;;;5029698;28;20045;-60
2023/04/05 14:33:25;;;;;;;5.93;3.33;;;;;;;;;;5036361;28;20124;-60